sensor_id;sensor_type;location;lat;lon;timestamp;temperature;humidity
77582;DHT22;66726;52.388;9.986;2023-12-20T00:01:25;7.40;99.90
77582;DHT22;66726;52.388;9.986;2023-12-20T00:03:53;7.40;99.90
77582;DHT22;66726;52.388;9.986;2023-12-20T00:06:21;7.30;99.90
77582;DHT22;66726;52.388;9.986;2023-12-20T00:08:50;7.30;99.90
77582;DHT22;66726;52.388;9.986;2023-12-20T00:11:18;7.30;99.90
77582;DHT22;66726;52.388;9.986;2023-12-20T00:13:46;7.30;99.90
77582;DHT22;66726;52.388;9.986;2023-12-20T00:16:17;7.30;99.90
77582;DHT22;66726;52.388;9.986;2023-12-20T00:18:47;7.20;99.90
77582;DHT22;66726;52.388;9.986;2023-12-20T00:21:15;7.30;99.90
77582;DHT22;66726;52.388;9.986;2023-12-20T00:23:43;7.30;99.90
77582;DHT22;66726;52.388;9.986;2023-12-20T00:26:11;7.20;99.90
77582;DHT22;66726;52.388;9.986;2023-12-20T00:28:40;7.20;99.90
77582;DHT22;66726;52.388;9.986;2023-12-20T00:31:09;7.20;99.90
77582;DHT22;66726;52.388;9.986;2023-12-20T00:33:37;7.20;99.90
77582;DHT22;66726;52.388;9.986;2023-12-20T00:36:11;7.20;99.90
77582;DHT22;66726;52.388;9.986;2023-12-20T00:38:40;7.10;99.90
77582;DHT22;66726;52.388;9.986;2023-12-20T00:41:08;7.10;99.90
77582;DHT22;66726;52.388;9.986;2023-12-20T00:43:36;7.10;99.90
77582;DHT22;66726;52.388;9.986;2023-12-20T00:46:04;7.00;99.90
77582;DHT22;66726;52.388;9.986;2023-12-20T00:48:32;7.00;99.90
77582;DHT22;66726;52.388;9.986;2023-12-20T00:51:00;7.00;99.90
77582;DHT22;66726;52.388;9.986;2023-12-20T00:53:30;7.00;99.90
77582;DHT22;66726;52.388;9.986;2023-12-20T00:55:58;7.00;99.90
77582;DHT22;66726;52.388;9.986;2023-12-20T00:58:26;7.00;99.90
77582;DHT22;66726;52.388;9.986;2023-12-20T01:00:54;7.00;99.90
77582;DHT22;66726;52.388;9.986;2023-12-20T01:03:23;7.00;99.90
77582;DHT22;66726;52.388;9.986;2023-12-20T01:05:51;7.00;99.90
77582;DHT22;66726;52.388;9.986;2023-12-20T01:08:19;6.90;99.90
77582;DHT22;66726;52.388;9.986;2023-12-20T01:10:48;6.80;99.90
77582;DHT22;66726;52.388;9.986;2023-12-20T01:13:17;6.80;99.90
77582;DHT22;66726;52.388;9.986;2023-12-20T01:15:45;6.90;99.90
77582;DHT22;66726;52.388;9.986;2023-12-20T01:18:15;6.90;99.90
77582;DHT22;66726;52.388;9.986;2023-12-20T01:20:43;6.90;99.90
77582;DHT22;66726;52.388;9.986;2023-12-20T01:23:11;6.90;99.90
77582;DHT22;66726;52.388;9.986;2023-12-20T01:25:39;6.80;99.90
77582;DHT22;66726;52.388;9.986;2023-12-20T01:28:09;6.80;99.90
77582;DHT22;66726;52.388;9.986;2023-12-20T01:30:37;6.80;99.90
77582;DHT22;66726;52.388;9.986;2023-12-20T01:33:05;6.80;99.90
77582;DHT22;66726;52.388;9.986;2023-12-20T01:35:34;6.80;99.90
77582;DHT22;66726;52.388;9.986;2023-12-20T01:38:02;6.70;99.90
77582;DHT22;66726;52.388;9.986;2023-12-20T01:40:30;6.80;99.90
77582;DHT22;66726;52.388;9.986;2023-12-20T01:42:59;6.80;99.90
77582;DHT22;66726;52.388;9.986;2023-12-20T01:45:29;6.70;99.90
77582;DHT22;66726;52.388;9.986;2023-12-20T01:47:58;6.80;99.90
77582;DHT22;66726;52.388;9.986;2023-12-20T01:50:28;6.70;99.90
77582;DHT22;66726;52.388;9.986;2023-12-20T01:53:00;6.70;99.90
77582;DHT22;66726;52.388;9.986;2023-12-20T01:55:31;6.70;99.90
77582;DHT22;66726;52.388;9.986;2023-12-20T01:58:02;6.70;99.90
77582;DHT22;66726;52.388;9.986;2023-12-20T02:00:33;6.60;99.90
77582;DHT22;66726;52.388;9.986;2023-12-20T02:03:03;6.60;99.90
77582;DHT22;66726;52.388;9.986;2023-12-20T02:05:33;6.60;99.90
77582;DHT22;66726;52.388;9.986;2023-12-20T02:08:02;6.50;99.90
77582;DHT22;66726;52.388;9.986;2023-12-20T02:10:32;6.60;99.90
77582;DHT22;66726;52.388;9.986;2023-12-20T02:13:00;6.60;99.90
77582;DHT22;66726;52.388;9.986;2023-12-20T02:15:28;6.50;99.90
77582;DHT22;66726;52.388;9.986;2023-12-20T02:17:58;6.50;99.90
77582;DHT22;66726;52.388;9.986;2023-12-20T02:20:26;6.40;99.90
77582;DHT22;66726;52.388;9.986;2023-12-20T02:22:56;6.50;99.90
77582;DHT22;66726;52.388;9.986;2023-12-20T02:25:24;6.50;99.90
77582;DHT22;66726;52.388;9.986;2023-12-20T02:27:52;6.50;99.90
77582;DHT22;66726;52.388;9.986;2023-12-20T02:30:20;6.40;99.90
77582;DHT22;66726;52.388;9.986;2023-12-20T02:32:49;6.50;99.90
77582;DHT22;66726;52.388;9.986;2023-12-20T02:35:19;6.40;99.90
77582;DHT22;66726;52.388;9.986;2023-12-20T02:37:47;6.40;99.90
77582;DHT22;66726;52.388;9.986;2023-12-20T02:40:16;6.40;99.90
77582;DHT22;66726;52.388;9.986;2023-12-20T02:42:45;6.30;99.90
77582;DHT22;66726;52.388;9.986;2023-12-20T02:45:13;6.30;99.90
77582;DHT22;66726;52.388;9.986;2023-12-20T02:47:41;6.30;99.90
77582;DHT22;66726;52.388;9.986;2023-12-20T02:50:10;6.30;99.90
77582;DHT22;66726;52.388;9.986;2023-12-20T02:52:38;6.30;99.90
77582;DHT22;66726;52.388;9.986;2023-12-20T02:55:06;6.30;99.90
77582;DHT22;66726;52.388;9.986;2023-12-20T02:57:36;6.30;99.90
77582;DHT22;66726;52.388;9.986;2023-12-20T03:00:09;6.20;99.90
77582;DHT22;66726;52.388;9.986;2023-12-20T03:02:38;6.30;99.90
77582;DHT22;66726;52.388;9.986;2023-12-20T03:05:07;6.20;99.90
77582;DHT22;66726;52.388;9.986;2023-12-20T03:07:36;6.20;99.90
77582;DHT22;66726;52.388;9.986;2023-12-20T03:10:06;6.10;99.90
77582;DHT22;66726;52.388;9.986;2023-12-20T03:12:47;6.20;99.90
77582;DHT22;66726;52.388;9.986;2023-12-20T03:15:15;6.20;99.90
77582;DHT22;66726;52.388;9.986;2023-12-20T03:17:43;6.10;99.90
77582;DHT22;66726;52.388;9.986;2023-12-20T03:20:12;6.10;99.90
77582;DHT22;66726;52.388;9.986;2023-12-20T03:22:40;6.10;99.90
77582;DHT22;66726;52.388;9.986;2023-12-20T03:25:08;6.10;99.90
77582;DHT22;66726;52.388;9.986;2023-12-20T03:27:37;6.10;99.90
77582;DHT22;66726;52.388;9.986;2023-12-20T03:30:08;6.00;99.90
77582;DHT22;66726;52.388;9.986;2023-12-20T03:32:38;6.00;99.90
77582;DHT22;66726;52.388;9.986;2023-12-20T03:35:06;5.90;99.90
77582;DHT22;66726;52.388;9.986;2023-12-20T03:37:34;5.90;99.90
77582;DHT22;66726;52.388;9.986;2023-12-20T03:40:03;5.90;99.90
77582;DHT22;66726;52.388;9.986;2023-12-20T03:42:32;5.90;99.90
77582;DHT22;66726;52.388;9.986;2023-12-20T03:45:00;5.90;99.90
77582;DHT22;66726;52.388;9.986;2023-12-20T03:47:30;5.90;99.90
77582;DHT22;66726;52.388;9.986;2023-12-20T03:49:58;5.90;99.90
77582;DHT22;66726;52.388;9.986;2023-12-20T03:52:26;5.90;99.90
77582;DHT22;66726;52.388;9.986;2023-12-20T03:54:55;5.90;99.90
77582;DHT22;66726;52.388;9.986;2023-12-20T03:57:23;5.90;99.90
77582;DHT22;66726;52.388;9.986;2023-12-20T03:59:51;5.80;99.90
77582;DHT22;66726;52.388;9.986;2023-12-20T04:02:19;5.80;99.90
77582;DHT22;66726;52.388;9.986;2023-12-20T04:04:49;5.80;99.90
77582;DHT22;66726;52.388;9.986;2023-12-20T04:07:17;5.80;99.90
77582;DHT22;66726;52.388;9.986;2023-12-20T04:09:45;5.70;99.90
77582;DHT22;66726;52.388;9.986;2023-12-20T04:12:14;5.70;99.90
77582;DHT22;66726;52.388;9.986;2023-12-20T04:14:43;5.80;99.90
77582;DHT22;66726;52.388;9.986;2023-12-20T04:17:11;5.70;99.90
77582;DHT22;66726;52.388;9.986;2023-12-20T04:19:39;5.70;99.90
77582;DHT22;66726;52.388;9.986;2023-12-20T04:22:08;5.70;99.90
77582;DHT22;66726;52.388;9.986;2023-12-20T04:24:37;5.70;99.90
77582;DHT22;66726;52.388;9.986;2023-12-20T04:27:05;5.70;99.90
77582;DHT22;66726;52.388;9.986;2023-12-20T04:29:33;5.70;99.90
77582;DHT22;66726;52.388;9.986;2023-12-20T04:32:01;5.70;99.90
77582;DHT22;66726;52.388;9.986;2023-12-20T04:34:30;5.80;99.90
77582;DHT22;66726;52.388;9.986;2023-12-20T04:36:58;5.80;99.90
77582;DHT22;66726;52.388;9.986;2023-12-20T04:39:28;5.70;99.90
77582;DHT22;66726;52.388;9.986;2023-12-20T04:41:56;5.80;99.90
77582;DHT22;66726;52.388;9.986;2023-12-20T04:44:24;5.80;99.90
77582;DHT22;66726;52.388;9.986;2023-12-20T04:46:53;5.80;99.90
77582;DHT22;66726;52.388;9.986;2023-12-20T04:49:23;5.80;99.90
77582;DHT22;66726;52.388;9.986;2023-12-20T04:51:51;5.80;99.90
77582;DHT22;66726;52.388;9.986;2023-12-20T04:54:19;5.80;99.90
77582;DHT22;66726;52.388;9.986;2023-12-20T04:56:49;5.80;99.90
77582;DHT22;66726;52.388;9.986;2023-12-20T04:59:17;5.80;99.90
77582;DHT22;66726;52.388;9.986;2023-12-20T05:01:46;5.80;99.90
77582;DHT22;66726;52.388;9.986;2023-12-20T05:04:14;5.90;99.90
77582;DHT22;66726;52.388;9.986;2023-12-20T05:06:42;5.90;99.90
77582;DHT22;66726;52.388;9.986;2023-12-20T05:09:10;5.90;99.90
77582;DHT22;66726;52.388;9.986;2023-12-20T05:11:38;5.90;99.90
77582;DHT22;66726;52.388;9.986;2023-12-20T05:14:08;5.90;99.90
77582;DHT22;66726;52.388;9.986;2023-12-20T05:16:36;5.90;99.90
77582;DHT22;66726;52.388;9.986;2023-12-20T05:19:04;5.90;99.90
77582;DHT22;66726;52.388;9.986;2023-12-20T05:21:33;5.90;99.90
77582;DHT22;66726;52.388;9.986;2023-12-20T05:24:03;6.00;99.90
77582;DHT22;66726;52.388;9.986;2023-12-20T05:26:31;6.00;99.90
77582;DHT22;66726;52.388;9.986;2023-12-20T05:28:59;6.00;99.90
77582;DHT22;66726;52.388;9.986;2023-12-20T05:31:29;6.00;99.90
77582;DHT22;66726;52.388;9.986;2023-12-20T05:33:57;6.00;99.90
77582;DHT22;66726;52.388;9.986;2023-12-20T05:36:26;6.00;99.90
77582;DHT22;66726;52.388;9.986;2023-12-20T05:38:55;6.00;99.90
77582;DHT22;66726;52.388;9.986;2023-12-20T05:41:23;6.00;99.90
77582;DHT22;66726;52.388;9.986;2023-12-20T05:43:51;6.00;99.90
77582;DHT22;66726;52.388;9.986;2023-12-20T05:46:19;6.10;99.90
77582;DHT22;66726;52.388;9.986;2023-12-20T05:48:49;6.10;99.90
77582;DHT22;66726;52.388;9.986;2023-12-20T05:51:18;6.00;99.90
77582;DHT22;66726;52.388;9.986;2023-12-20T05:53:46;6.10;99.90
77582;DHT22;66726;52.388;9.986;2023-12-20T05:56:16;6.00;99.90
77582;DHT22;66726;52.388;9.986;2023-12-20T05:58:44;6.00;99.90
77582;DHT22;66726;52.388;9.986;2023-12-20T06:01:14;6.00;99.90
77582;DHT22;66726;52.388;9.986;2023-12-20T06:03:44;6.00;99.90
77582;DHT22;66726;52.388;9.986;2023-12-20T06:06:14;6.10;99.90
77582;DHT22;66726;52.388;9.986;2023-12-20T06:08:43;6.10;99.90
77582;DHT22;66726;52.388;9.986;2023-12-20T06:11:11;6.10;99.90
77582;DHT22;66726;52.388;9.986;2023-12-20T06:13:40;6.10;99.90
77582;DHT22;66726;52.388;9.986;2023-12-20T06:16:08;6.10;99.90
77582;DHT22;66726;52.388;9.986;2023-12-20T06:18:36;6.10;99.90
77582;DHT22;66726;52.388;9.986;2023-12-20T06:21:05;6.10;99.90
77582;DHT22;66726;52.388;9.986;2023-12-20T06:23:35;6.10;99.90
77582;DHT22;66726;52.388;9.986;2023-12-20T06:26:03;6.10;99.90
77582;DHT22;66726;52.388;9.986;2023-12-20T06:28:31;6.10;99.90
77582;DHT22;66726;52.388;9.986;2023-12-20T06:30:59;6.10;99.90
77582;DHT22;66726;52.388;9.986;2023-12-20T06:33:28;6.10;99.90
77582;DHT22;66726;52.388;9.986;2023-12-20T06:35:57;6.10;99.90
77582;DHT22;66726;52.388;9.986;2023-12-20T06:38:25;6.10;99.90
77582;DHT22;66726;52.388;9.986;2023-12-20T06:40:55;6.10;99.90
77582;DHT22;66726;52.388;9.986;2023-12-20T06:43:24;6.10;99.90
77582;DHT22;66726;52.388;9.986;2023-12-20T06:45:57;6.10;99.90
77582;DHT22;66726;52.388;9.986;2023-12-20T06:48:25;6.10;99.90
77582;DHT22;66726;52.388;9.986;2023-12-20T06:50:54;6.10;99.90
77582;DHT22;66726;52.388;9.986;2023-12-20T06:53:22;6.10;99.90
77582;DHT22;66726;52.388;9.986;2023-12-20T06:55:49;6.10;99.90
77582;DHT22;66726;52.388;9.986;2023-12-20T06:58:18;6.10;99.90
77582;DHT22;66726;52.388;9.986;2023-12-20T07:00:47;6.10;99.90
77582;DHT22;66726;52.388;9.986;2023-12-20T07:03:15;6.10;99.90
77582;DHT22;66726;52.388;9.986;2023-12-20T07:05:43;6.10;99.90
77582;DHT22;66726;52.388;9.986;2023-12-20T07:08:12;6.10;99.90
77582;DHT22;66726;52.388;9.986;2023-12-20T07:10:42;6.10;99.90
77582;DHT22;66726;52.388;9.986;2023-12-20T07:13:10;6.10;99.90
77582;DHT22;66726;52.388;9.986;2023-12-20T07:15:41;6.10;99.90
77582;DHT22;66726;52.388;9.986;2023-12-20T07:18:10;6.10;99.90
77582;DHT22;66726;52.388;9.986;2023-12-20T07:20:38;6.10;99.90
77582;DHT22;66726;52.388;9.986;2023-12-20T07:23:07;6.10;99.90
77582;DHT22;66726;52.388;9.986;2023-12-20T07:25:35;6.10;99.90
77582;DHT22;66726;52.388;9.986;2023-12-20T07:28:04;6.10;99.90
77582;DHT22;66726;52.388;9.986;2023-12-20T07:30:32;6.10;99.90
77582;DHT22;66726;52.388;9.986;2023-12-20T07:33:02;6.00;99.90
77582;DHT22;66726;52.388;9.986;2023-12-20T07:35:31;6.00;99.90
77582;DHT22;66726;52.388;9.986;2023-12-20T07:37:59;6.00;99.90
77582;DHT22;66726;52.388;9.986;2023-12-20T07:40:29;6.00;99.90
77582;DHT22;66726;52.388;9.986;2023-12-20T07:42:57;6.00;99.90
77582;DHT22;66726;52.388;9.986;2023-12-20T07:45:25;6.00;99.90
77582;DHT22;66726;52.388;9.986;2023-12-20T07:47:53;6.00;99.90
77582;DHT22;66726;52.388;9.986;2023-12-20T07:50:23;6.00;99.90
77582;DHT22;66726;52.388;9.986;2023-12-20T07:52:51;6.10;99.90
77582;DHT22;66726;52.388;9.986;2023-12-20T07:55:19;6.10;99.90
77582;DHT22;66726;52.388;9.986;2023-12-20T07:57:48;6.10;99.90
77582;DHT22;66726;52.388;9.986;2023-12-20T08:00:17;6.10;99.90
77582;DHT22;66726;52.388;9.986;2023-12-20T08:02:46;6.10;99.90
77582;DHT22;66726;52.388;9.986;2023-12-20T08:05:14;6.10;99.90
77582;DHT22;66726;52.388;9.986;2023-12-20T08:07:46;6.10;99.90
77582;DHT22;66726;52.388;9.986;2023-12-20T08:10:14;6.00;99.90
77582;DHT22;66726;52.388;9.986;2023-12-20T08:12:45;6.00;99.90
77582;DHT22;66726;52.388;9.986;2023-12-20T08:15:13;6.00;99.90
77582;DHT22;66726;52.388;9.986;2023-12-20T08:17:42;6.00;99.90
77582;DHT22;66726;52.388;9.986;2023-12-20T08:20:11;6.00;99.90
77582;DHT22;66726;52.388;9.986;2023-12-20T08:22:47;6.00;99.90
77582;DHT22;66726;52.388;9.986;2023-12-20T08:25:15;6.00;99.90
77582;DHT22;66726;52.388;9.986;2023-12-20T08:27:43;6.00;99.90
77582;DHT22;66726;52.388;9.986;2023-12-20T08:30:12;6.00;99.90
77582;DHT22;66726;52.388;9.986;2023-12-20T08:32:40;6.00;99.90
77582;DHT22;66726;52.388;9.986;2023-12-20T08:35:08;6.00;99.90
77582;DHT22;66726;52.388;9.986;2023-12-20T08:37:36;6.00;99.90
77582;DHT22;66726;52.388;9.986;2023-12-20T08:40:07;6.00;99.90
77582;DHT22;66726;52.388;9.986;2023-12-20T08:42:36;6.00;99.90
77582;DHT22;66726;52.388;9.986;2023-12-20T08:45:05;6.10;99.90
77582;DHT22;66726;52.388;9.986;2023-12-20T08:47:33;6.10;99.90
77582;DHT22;66726;52.388;9.986;2023-12-20T08:50:02;6.10;99.90
77582;DHT22;66726;52.388;9.986;2023-12-20T08:52:31;6.10;99.90
77582;DHT22;66726;52.388;9.986;2023-12-20T08:54:59;6.20;99.90
77582;DHT22;66726;52.388;9.986;2023-12-20T08:57:29;6.20;99.90
77582;DHT22;66726;52.388;9.986;2023-12-20T08:59:58;6.20;99.90
77582;DHT22;66726;52.388;9.986;2023-12-20T09:02:26;6.20;99.90
77582;DHT22;66726;52.388;9.986;2023-12-20T09:04:56;6.20;99.90
77582;DHT22;66726;52.388;9.986;2023-12-20T09:07:24;6.30;99.90
77582;DHT22;66726;52.388;9.986;2023-12-20T09:09:54;6.30;99.90
77582;DHT22;66726;52.388;9.986;2023-12-20T09:12:22;6.30;99.90
77582;DHT22;66726;52.388;9.986;2023-12-20T09:14:52;6.30;99.90
77582;DHT22;66726;52.388;9.986;2023-12-20T09:17:20;6.30;99.90
77582;DHT22;66726;52.388;9.986;2023-12-20T09:19:49;6.40;99.90
77582;DHT22;66726;52.388;9.986;2023-12-20T09:22:19;6.40;99.90
77582;DHT22;66726;52.388;9.986;2023-12-20T09:24:47;6.40;99.90
77582;DHT22;66726;52.388;9.986;2023-12-20T09:27:16;6.40;99.90
77582;DHT22;66726;52.388;9.986;2023-12-20T09:29:44;6.40;99.90
77582;DHT22;66726;52.388;9.986;2023-12-20T09:32:13;6.40;99.90
77582;DHT22;66726;52.388;9.986;2023-12-20T09:34:41;6.40;99.90
77582;DHT22;66726;52.388;9.986;2023-12-20T09:37:10;6.40;99.90
77582;DHT22;66726;52.388;9.986;2023-12-20T09:39:38;6.50;99.90
77582;DHT22;66726;52.388;9.986;2023-12-20T09:42:07;6.40;99.90
77582;DHT22;66726;52.388;9.986;2023-12-20T09:44:35;6.40;99.90
77582;DHT22;66726;52.388;9.986;2023-12-20T09:47:04;6.50;99.90
77582;DHT22;66726;52.388;9.986;2023-12-20T09:49:36;6.40;99.90
77582;DHT22;66726;52.388;9.986;2023-12-20T09:52:07;6.50;99.90
77582;DHT22;66726;52.388;9.986;2023-12-20T09:54:38;6.50;99.90
77582;DHT22;66726;52.388;9.986;2023-12-20T09:57:07;6.50;99.90
77582;DHT22;66726;52.388;9.986;2023-12-20T09:59:37;6.50;99.90
77582;DHT22;66726;52.388;9.986;2023-12-20T10:02:09;6.50;99.90
77582;DHT22;66726;52.388;9.986;2023-12-20T10:04:46;6.60;99.90
77582;DHT22;66726;52.388;9.986;2023-12-20T10:07:15;6.60;99.90
77582;DHT22;66726;52.388;9.986;2023-12-20T10:09:44;6.60;99.90
77582;DHT22;66726;52.388;9.986;2023-12-20T10:12:13;6.60;99.90
77582;DHT22;66726;52.388;9.986;2023-12-20T10:14:42;6.60;99.90
77582;DHT22;66726;52.388;9.986;2023-12-20T10:17:10;6.60;99.90
77582;DHT22;66726;52.388;9.986;2023-12-20T10:19:38;6.60;99.90
77582;DHT22;66726;52.388;9.986;2023-12-20T10:22:08;6.70;99.90
77582;DHT22;66726;52.388;9.986;2023-12-20T10:24:36;6.70;99.90
77582;DHT22;66726;52.388;9.986;2023-12-20T10:27:05;6.70;99.90
77582;DHT22;66726;52.388;9.986;2023-12-20T10:29:34;6.70;99.90
77582;DHT22;66726;52.388;9.986;2023-12-20T10:32:26;6.70;99.90
77582;DHT22;66726;52.388;9.986;2023-12-20T10:34:55;6.70;99.90
77582;DHT22;66726;52.388;9.986;2023-12-20T10:37:25;6.80;99.90
77582;DHT22;66726;52.388;9.986;2023-12-20T10:39:54;6.80;99.90
77582;DHT22;66726;52.388;9.986;2023-12-20T10:42:26;6.80;99.90
77582;DHT22;66726;52.388;9.986;2023-12-20T10:44:55;6.80;99.90
77582;DHT22;66726;52.388;9.986;2023-12-20T10:47:25;6.80;99.90
77582;DHT22;66726;52.388;9.986;2023-12-20T10:49:54;6.80;99.90
77582;DHT22;66726;52.388;9.986;2023-12-20T10:52:25;6.80;99.90
77582;DHT22;66726;52.388;9.986;2023-12-20T10:54:55;6.80;99.90
77582;DHT22;66726;52.388;9.986;2023-12-20T10:57:26;6.80;99.90
77582;DHT22;66726;52.388;9.986;2023-12-20T10:59:56;6.70;99.90
77582;DHT22;66726;52.388;9.986;2023-12-20T11:02:32;6.70;99.90
77582;DHT22;66726;52.388;9.986;2023-12-20T11:05:10;6.70;99.90
77582;DHT22;66726;52.388;9.986;2023-12-20T11:07:55;6.70;99.90
77582;DHT22;66726;52.388;9.986;2023-12-20T11:10:34;6.80;99.90
77582;DHT22;66726;52.388;9.986;2023-12-20T11:13:17;6.80;99.90
77582;DHT22;66726;52.388;9.986;2023-12-20T11:15:48;6.90;99.90
77582;DHT22;66726;52.388;9.986;2023-12-20T11:18:17;6.90;99.90
77582;DHT22;66726;52.388;9.986;2023-12-20T11:20:45;6.90;99.90
77582;DHT22;66726;52.388;9.986;2023-12-20T11:23:15;6.90;99.90
77582;DHT22;66726;52.388;9.986;2023-12-20T11:25:47;6.90;99.90
77582;DHT22;66726;52.388;9.986;2023-12-20T11:28:21;6.90;99.90
77582;DHT22;66726;52.388;9.986;2023-12-20T11:30:51;6.80;99.90
77582;DHT22;66726;52.388;9.986;2023-12-20T11:33:22;6.80;99.90
77582;DHT22;66726;52.388;9.986;2023-12-20T11:35:56;6.80;99.90
77582;DHT22;66726;52.388;9.986;2023-12-20T11:38:26;6.80;99.90
77582;DHT22;66726;52.388;9.986;2023-12-20T11:40:55;6.70;99.90
77582;DHT22;66726;52.388;9.986;2023-12-20T11:43:30;6.70;99.90
77582;DHT22;66726;52.388;9.986;2023-12-20T11:46:03;6.70;99.90
77582;DHT22;66726;52.388;9.986;2023-12-20T11:48:35;6.70;99.90
77582;DHT22;66726;52.388;9.986;2023-12-20T11:51:09;6.70;99.90
77582;DHT22;66726;52.388;9.986;2023-12-20T11:53:40;6.60;99.90
77582;DHT22;66726;52.388;9.986;2023-12-20T11:56:09;6.60;99.90
77582;DHT22;66726;52.388;9.986;2023-12-20T11:58:39;6.60;99.90
77582;DHT22;66726;52.388;9.986;2023-12-20T12:01:08;6.50;99.90
77582;DHT22;66726;52.388;9.986;2023-12-20T12:03:36;6.50;99.90
77582;DHT22;66726;52.388;9.986;2023-12-20T12:06:05;6.50;99.90
77582;DHT22;66726;52.388;9.986;2023-12-20T12:08:35;6.50;99.90
77582;DHT22;66726;52.388;9.986;2023-12-20T12:11:05;6.50;99.90
77582;DHT22;66726;52.388;9.986;2023-12-20T12:13:33;6.40;99.90
77582;DHT22;66726;52.388;9.986;2023-12-20T12:16:02;6.40;99.90
77582;DHT22;66726;52.388;9.986;2023-12-20T12:18:32;6.30;99.90
77582;DHT22;66726;52.388;9.986;2023-12-20T12:21:01;6.30;99.90
77582;DHT22;66726;52.388;9.986;2023-12-20T12:23:38;6.30;99.90
77582;DHT22;66726;52.388;9.986;2023-12-20T12:26:08;6.30;99.90
77582;DHT22;66726;52.388;9.986;2023-12-20T12:28:39;6.30;99.90
77582;DHT22;66726;52.388;9.986;2023-12-20T12:31:09;6.30;99.90
77582;DHT22;66726;52.388;9.986;2023-12-20T12:33:41;6.30;99.90
77582;DHT22;66726;52.388;9.986;2023-12-20T12:36:10;6.20;99.90
77582;DHT22;66726;52.388;9.986;2023-12-20T12:38:42;6.10;99.90
77582;DHT22;66726;52.388;9.986;2023-12-20T12:41:14;6.20;99.90
77582;DHT22;66726;52.388;9.986;2023-12-20T12:43:43;6.20;99.90
77582;DHT22;66726;52.388;9.986;2023-12-20T12:46:11;6.20;99.90
77582;DHT22;66726;52.388;9.986;2023-12-20T12:48:39;6.20;99.90
77582;DHT22;66726;52.388;9.986;2023-12-20T12:51:12;6.10;99.90
77582;DHT22;66726;52.388;9.986;2023-12-20T12:53:40;6.10;99.90
77582;DHT22;66726;52.388;9.986;2023-12-20T12:56:09;6.20;99.90
77582;DHT22;66726;52.388;9.986;2023-12-20T12:58:38;6.40;99.90
77582;DHT22;66726;52.388;9.986;2023-12-20T13:01:06;6.40;99.90
77582;DHT22;66726;52.388;9.986;2023-12-20T13:03:35;6.40;99.90
77582;DHT22;66726;52.388;9.986;2023-12-20T13:06:04;6.30;99.90
77582;DHT22;66726;52.388;9.986;2023-12-20T13:08:35;6.30;99.90
77582;DHT22;66726;52.388;9.986;2023-12-20T13:11:03;6.40;99.90
77582;DHT22;66726;52.388;9.986;2023-12-20T13:13:31;6.30;99.90
77582;DHT22;66726;52.388;9.986;2023-12-20T13:16:01;6.30;99.90
77582;DHT22;66726;52.388;9.986;2023-12-20T13:18:30;6.20;99.90
77582;DHT22;66726;52.388;9.986;2023-12-20T13:20:58;6.20;99.90
77582;DHT22;66726;52.388;9.986;2023-12-20T13:23:26;6.10;99.90
77582;DHT22;66726;52.388;9.986;2023-12-20T13:25:54;6.10;99.90
77582;DHT22;66726;52.388;9.986;2023-12-20T13:28:22;6.00;99.90
77582;DHT22;66726;52.388;9.986;2023-12-20T13:30:50;6.00;99.90
77582;DHT22;66726;52.388;9.986;2023-12-20T13:33:20;6.00;99.90
77582;DHT22;66726;52.388;9.986;2023-12-20T13:35:49;6.00;99.90
77582;DHT22;66726;52.388;9.986;2023-12-20T13:38:17;6.00;99.90
77582;DHT22;66726;52.388;9.986;2023-12-20T13:40:45;6.00;99.90
77582;DHT22;66726;52.388;9.986;2023-12-20T13:43:13;6.00;99.90
77582;DHT22;66726;52.388;9.986;2023-12-20T13:45:43;6.00;99.90
77582;DHT22;66726;52.388;9.986;2023-12-20T13:48:12;6.00;99.90
77582;DHT22;66726;52.388;9.986;2023-12-20T13:50:42;6.00;99.90
77582;DHT22;66726;52.388;9.986;2023-12-20T13:53:11;6.00;99.90
77582;DHT22;66726;52.388;9.986;2023-12-20T13:55:39;6.00;99.90
77582;DHT22;66726;52.388;9.986;2023-12-20T13:58:08;6.00;99.90
77582;DHT22;66726;52.388;9.986;2023-12-20T14:00:37;6.00;99.90
77582;DHT22;66726;52.388;9.986;2023-12-20T14:03:05;6.00;99.90
77582;DHT22;66726;52.388;9.986;2023-12-20T14:05:33;6.00;99.90
77582;DHT22;66726;52.388;9.986;2023-12-20T14:08:06;6.00;99.90
77582;DHT22;66726;52.388;9.986;2023-12-20T14:10:35;6.00;99.90
77582;DHT22;66726;52.388;9.986;2023-12-20T14:13:03;6.00;99.90
77582;DHT22;66726;52.388;9.986;2023-12-20T14:15:32;6.00;99.90
77582;DHT22;66726;52.388;9.986;2023-12-20T14:18:04;6.00;99.90
77582;DHT22;66726;52.388;9.986;2023-12-20T14:20:35;6.00;99.90
77582;DHT22;66726;52.388;9.986;2023-12-20T14:23:05;6.10;99.90
77582;DHT22;66726;52.388;9.986;2023-12-20T14:25:33;6.10;99.90
77582;DHT22;66726;52.388;9.986;2023-12-20T14:28:17;6.10;99.90
77582;DHT22;66726;52.388;9.986;2023-12-20T14:30:48;6.10;99.90
77582;DHT22;66726;52.388;9.986;2023-12-20T14:33:17;6.10;99.90
77582;DHT22;66726;52.388;9.986;2023-12-20T14:35:47;6.10;99.90
77582;DHT22;66726;52.388;9.986;2023-12-20T14:38:17;6.10;99.90
77582;DHT22;66726;52.388;9.986;2023-12-20T14:40:46;6.10;99.90
77582;DHT22;66726;52.388;9.986;2023-12-20T14:43:14;6.10;99.90
77582;DHT22;66726;52.388;9.986;2023-12-20T14:45:43;6.10;99.90
77582;DHT22;66726;52.388;9.986;2023-12-20T14:48:11;6.10;99.90
77582;DHT22;66726;52.388;9.986;2023-12-20T14:50:39;6.10;99.90
77582;DHT22;66726;52.388;9.986;2023-12-20T14:53:09;6.20;99.90
77582;DHT22;66726;52.388;9.986;2023-12-20T14:55:38;6.20;99.90
77582;DHT22;66726;52.388;9.986;2023-12-20T14:58:07;6.20;99.90
77582;DHT22;66726;52.388;9.986;2023-12-20T15:00:35;6.20;99.90
77582;DHT22;66726;52.388;9.986;2023-12-20T15:03:04;6.20;99.90
77582;DHT22;66726;52.388;9.986;2023-12-20T15:05:34;6.20;99.90
77582;DHT22;66726;52.388;9.986;2023-12-20T15:08:03;6.20;99.90
77582;DHT22;66726;52.388;9.986;2023-12-20T15:10:31;6.10;99.90
77582;DHT22;66726;52.388;9.986;2023-12-20T15:13:01;6.20;99.90
77582;DHT22;66726;52.388;9.986;2023-12-20T15:15:29;6.20;99.90
77582;DHT22;66726;52.388;9.986;2023-12-20T15:17:59;6.20;99.90
77582;DHT22;66726;52.388;9.986;2023-12-20T15:20:28;6.20;99.90
77582;DHT22;66726;52.388;9.986;2023-12-20T15:22:56;6.20;99.90
77582;DHT22;66726;52.388;9.986;2023-12-20T15:25:25;6.20;99.90
77582;DHT22;66726;52.388;9.986;2023-12-20T15:27:53;6.20;99.90
77582;DHT22;66726;52.388;9.986;2023-12-20T15:30:23;6.20;99.90
77582;DHT22;66726;52.388;9.986;2023-12-20T15:32:51;6.20;99.90
77582;DHT22;66726;52.388;9.986;2023-12-20T15:35:19;6.20;99.90
77582;DHT22;66726;52.388;9.986;2023-12-20T15:37:48;6.20;99.90
77582;DHT22;66726;52.388;9.986;2023-12-20T15:40:16;6.20;99.90
77582;DHT22;66726;52.388;9.986;2023-12-20T15:42:45;6.20;99.90
77582;DHT22;66726;52.388;9.986;2023-12-20T15:45:13;6.20;99.90
77582;DHT22;66726;52.388;9.986;2023-12-20T15:47:43;6.20;99.90
77582;DHT22;66726;52.388;9.986;2023-12-20T15:50:12;6.10;99.90
77582;DHT22;66726;52.388;9.986;2023-12-20T15:52:40;6.10;99.90
77582;DHT22;66726;52.388;9.986;2023-12-20T15:55:10;6.10;99.90
77582;DHT22;66726;52.388;9.986;2023-12-20T15:57:38;6.10;99.90